createdAt,value
2019-04-13T00:00:36.874Z,1011.98
2019-04-13T00:01:36.985Z,1011.99
2019-04-13T00:02:37.388Z,1012.00
2019-04-13T00:03:37.833Z,1011.94
2019-04-13T00:04:38.297Z,1011.96
2019-04-13T00:05:38.459Z,1011.98
2019-04-13T00:06:38.384Z,1011.90
2019-04-13T00:07:38.540Z,1011.87
2019-04-13T00:08:38.816Z,1011.87
2019-04-13T00:09:39.102Z,1011.88
2019-04-13T00:10:39.361Z,1011.93
2019-04-13T00:11:39.770Z,1011.91
2019-04-13T00:12:40.368Z,1011.90
2019-04-13T00:13:42.921Z,1011.90
2019-04-13T00:14:41.094Z,1011.86
2019-04-13T00:15:41.362Z,1011.93
2019-04-13T00:16:41.765Z,1011.93
2019-04-13T00:17:42.025Z,1011.94
2019-04-13T00:18:42.391Z,1011.93
2019-04-13T00:19:42.671Z,1011.82
2019-04-13T00:20:42.951Z,1011.90
2019-04-13T00:21:43.204Z,1011.80
2019-04-13T00:22:43.469Z,1011.90
2019-04-13T00:23:43.746Z,1011.86
2019-04-13T00:24:44.010Z,1011.81
2019-04-13T00:25:44.334Z,1011.86
2019-04-13T00:26:44.853Z,1011.81
2019-04-13T00:27:44.642Z,1011.76
2019-04-13T00:28:45.148Z,1011.81
2019-04-13T00:29:44.958Z,1011.77
2019-04-13T00:30:45.236Z,1011.77
2019-04-13T00:31:45.598Z,1011.80
2019-04-13T00:32:45.891Z,1011.73
2019-04-13T00:33:46.152Z,1011.78
2019-04-13T00:34:46.544Z,1011.72
2019-04-13T00:35:46.835Z,1011.74
2019-04-13T00:36:47.254Z,1011.72
2019-04-13T00:37:47.704Z,1011.76
2019-04-13T00:38:47.974Z,1011.81
2019-04-13T00:39:47.995Z,1011.86
2019-04-13T00:40:48.262Z,1011.83
2019-04-13T00:41:48.542Z,1011.74
2019-04-13T00:42:48.856Z,1011.79
2019-04-13T00:43:49.107Z,1011.82
2019-04-13T00:44:49.363Z,1011.79
2019-04-13T00:45:49.885Z,1011.82
2019-04-13T00:46:50.068Z,1011.79
2019-04-13T00:47:50.366Z,1011.78
2019-04-13T00:48:50.811Z,1011.77
2019-04-13T00:49:51.283Z,1011.77
2019-04-13T00:50:51.351Z,1011.74
2019-04-13T00:51:51.615Z,1011.72
2019-04-13T00:52:52.031Z,1011.81
2019-04-13T00:53:52.306Z,1011.75
2019-04-13T00:54:52.403Z,1011.73
2019-04-13T00:55:53.067Z,1011.74
2019-04-13T00:56:52.858Z,1011.69
2019-04-13T00:57:53.111Z,1011.73
2019-04-13T00:58:53.550Z,1011.72
2019-04-13T00:59:53.828Z,1011.72
2019-04-13T01:00:54.088Z,1011.75
2019-04-13T01:01:54.366Z,1011.71
2019-04-13T01:02:54.636Z,1011.69
2019-04-13T01:03:55.036Z,1011.66
2019-04-13T01:05:55.332Z,1011.73
2019-04-13T01:06:55.784Z,1011.62
2019-04-13T01:07:56.041Z,1011.67
2019-04-13T01:08:56.698Z,1011.64
2019-04-13T01:09:56.471Z,1011.67
2019-04-13T01:10:56.746Z,1011.70
2019-04-13T01:11:56.991Z,1011.69
2019-04-13T01:12:57.486Z,1011.73
2019-04-13T01:13:58.046Z,1011.79
2019-04-13T01:14:57.845Z,1011.77
2019-04-13T01:15:58.105Z,1011.66
2019-04-13T01:16:58.392Z,1011.58
2019-04-13T01:17:58.933Z,1011.73
2019-04-13T01:18:58.936Z,1011.68
2019-04-13T01:19:59.292Z,1011.65
2019-04-13T01:20:59.728Z,1011.69
2019-04-13T01:22:00.019Z,1011.64
2019-04-13T01:23:00.259Z,1011.68
2019-04-13T01:24:00.763Z,1011.67
2019-04-13T01:25:00.800Z,1011.64
2019-04-13T01:26:01.400Z,1011.53
2019-04-13T01:27:01.426Z,1011.68
2019-04-13T01:28:01.626Z,1011.58
2019-04-13T01:29:01.386Z,1011.64
2019-04-13T01:30:01.709Z,1011.62
2019-04-13T01:31:02.266Z,1011.57
2019-04-13T01:32:02.841Z,1011.70
2019-04-13T01:33:02.932Z,1011.56
2019-04-13T01:34:02.995Z,1011.59
2019-04-13T01:35:06.045Z,1011.69
2019-04-13T01:36:03.099Z,1011.60
2019-04-13T01:37:02.850Z,1011.62
2019-04-13T01:38:03.418Z,1011.64
2019-04-13T01:39:03.524Z,1011.62
2019-04-13T01:40:03.894Z,1011.54
2019-04-13T01:41:06.305Z,1011.64
2019-04-13T01:42:04.371Z,1011.54
2019-04-13T01:43:04.433Z,1011.60
2019-04-13T01:44:04.514Z,1011.59
2019-04-13T01:45:04.340Z,1011.57
2019-04-13T01:46:04.821Z,1011.62
2019-04-13T01:47:05.248Z,1011.62
2019-04-13T01:48:05.505Z,1011.57
2019-04-13T01:49:05.785Z,1011.59
2019-04-13T01:50:06.062Z,1011.54
2019-04-13T01:51:06.361Z,1011.59
2019-04-13T01:52:06.654Z,1011.51
2019-04-13T01:53:06.909Z,1011.62
2019-04-13T01:54:06.677Z,1011.53
2019-04-13T01:55:07.207Z,1011.59
2019-04-13T01:56:06.974Z,1011.59
2019-04-13T01:57:07.228Z,1011.47
2019-04-13T01:58:07.585Z,1011.54
2019-04-13T01:59:07.872Z,1011.47
2019-04-13T02:00:08.373Z,1011.51
2019-04-13T02:01:08.649Z,1011.57
2019-04-13T02:02:09.052Z,1011.44
2019-04-13T02:03:09.715Z,1011.49
2019-04-13T02:04:10.304Z,1011.40
2019-04-13T02:05:17.966Z,1011.41
2019-04-13T02:06:10.375Z,1011.37
2019-04-13T02:07:10.821Z,1011.38
2019-04-13T02:08:10.779Z,1011.28
2019-04-13T02:09:11.217Z,1011.30
2019-04-13T02:10:11.647Z,1011.41
2019-04-13T02:11:12.042Z,1011.42
2019-04-13T02:12:12.217Z,1011.43
2019-04-13T02:13:12.589Z,1011.42
2019-04-13T02:14:12.837Z,1011.39
2019-04-13T02:15:13.293Z,1011.38
2019-04-13T02:16:13.567Z,1011.43
2019-04-13T02:17:14.036Z,1011.40
2019-04-13T02:18:13.816Z,1011.36
2019-04-13T02:19:14.073Z,1011.48
2019-04-13T02:20:14.468Z,1011.46
2019-04-13T02:21:14.765Z,1011.45
2019-04-13T02:22:15.324Z,1011.47
2019-04-13T02:23:15.181Z,1011.40
2019-04-13T02:24:15.588Z,1011.40
2019-04-13T02:25:16.188Z,1011.42
2019-04-13T02:26:15.944Z,1011.35
2019-04-13T02:27:16.240Z,1011.35
2019-04-13T02:28:16.602Z,1011.35
2019-04-13T02:29:16.879Z,1011.38
2019-04-13T02:30:17.492Z,1011.37
2019-04-13T02:31:17.328Z,1011.31
2019-04-13T02:32:17.335Z,1011.31
2019-04-13T02:33:21.309Z,1011.31
2019-04-13T02:34:18.038Z,1011.25
2019-04-13T02:35:33.942Z,1011.34
2019-04-13T02:36:18.573Z,1011.31
2019-04-13T02:37:18.857Z,1011.28
2019-04-13T02:38:19.169Z,1011.28
2019-04-13T02:39:19.548Z,1011.25
2019-04-13T02:40:20.037Z,1011.24
2019-04-13T02:41:20.313Z,1011.27
2019-04-13T02:42:20.574Z,1011.32
2019-04-13T02:43:20.844Z,1011.32
2019-04-13T02:44:21.106Z,1011.34
2019-04-13T02:45:21.593Z,1011.26
2019-04-13T02:46:22.052Z,1011.23
2019-04-13T02:47:22.347Z,1011.32
2019-04-13T02:48:22.790Z,1011.24
2019-04-13T02:49:23.081Z,1011.30
2019-04-13T02:50:23.331Z,1011.31
2019-04-13T02:51:23.872Z,1011.22
2019-04-13T02:52:23.613Z,1011.34
2019-04-13T02:53:23.919Z,1011.22
2019-04-13T02:54:24.423Z,1011.22
2019-04-13T02:55:24.168Z,1011.27
2019-04-13T02:56:24.476Z,1011.21
2019-04-13T02:57:24.759Z,1011.20
2019-04-13T02:58:25.046Z,1011.28
2019-04-13T02:59:25.315Z,1011.21
2019-04-13T03:00:25.758Z,1011.13
2019-04-13T03:01:25.836Z,1011.24
2019-04-13T03:02:26.326Z,1011.15
2019-04-13T03:03:26.696Z,1011.25
2019-04-13T03:04:26.961Z,1011.16
2019-04-13T03:05:27.493Z,1011.17
2019-04-13T03:06:27.258Z,1011.16
2019-04-13T03:07:28.794Z,1011.25
2019-04-13T03:08:27.960Z,1011.21
2019-04-13T03:09:28.233Z,1011.24
2019-04-13T03:10:28.485Z,1011.23
2019-04-13T03:11:28.767Z,1011.19
2019-04-13T03:12:29.043Z,1011.24
2019-04-13T03:13:29.336Z,1011.15
2019-04-13T03:14:29.621Z,1011.21
2019-04-13T03:15:29.938Z,1011.20
2019-04-13T03:16:30.395Z,1011.21
2019-04-13T03:17:30.570Z,1011.15
2019-04-13T03:18:30.684Z,1011.08
2019-04-13T03:19:31.135Z,1011.11
2019-04-13T03:20:30.964Z,1011.10
2019-04-13T03:21:31.241Z,1011.09
2019-04-13T03:22:31.528Z,1011.12
2019-04-13T03:23:31.816Z,1011.13
2019-04-13T03:24:32.080Z,1011.18
2019-04-13T03:25:32.276Z,1011.14
2019-04-13T03:26:32.545Z,1011.07
2019-04-13T03:27:33.026Z,1011.13
2019-04-13T03:28:33.307Z,1011.17
2019-04-13T03:29:33.582Z,1011.12
2019-04-13T03:30:33.990Z,1011.13
2019-04-13T03:31:33.860Z,1011.11
2019-04-13T03:32:34.196Z,1011.14
2019-04-13T03:33:34.207Z,1011.12
2019-04-13T03:34:34.434Z,1011.12
2019-04-13T03:35:34.699Z,1011.18
2019-04-13T03:36:34.986Z,1011.05
2019-04-13T03:37:35.318Z,1011.13
2019-04-13T03:38:35.592Z,1011.08
2019-04-13T03:39:36.081Z,1011.07
2019-04-13T03:40:36.353Z,1011.04
2019-04-13T03:41:36.826Z,1011.08
2019-04-13T03:42:37.078Z,1011.15
2019-04-13T03:43:37.219Z,1011.12
2019-04-13T03:44:37.537Z,1011.14
2019-04-13T03:45:37.782Z,1011.15
2019-04-13T03:46:38.050Z,1011.10
2019-04-13T03:47:38.313Z,1011.09
2019-04-13T03:48:38.604Z,1011.12
2019-04-13T03:49:38.861Z,1011.09
2019-04-13T03:50:39.303Z,1011.08
2019-04-13T03:51:39.741Z,1011.15
2019-04-13T03:52:39.730Z,1011.16
2019-04-13T03:53:40.166Z,1011.10
2019-04-13T03:54:40.415Z,1011.12
2019-04-13T03:55:40.425Z,1011.09
2019-04-13T03:56:40.977Z,1011.09
2019-04-13T03:57:40.980Z,1011.09
2019-04-13T03:58:41.248Z,1011.09
2019-04-13T03:59:41.668Z,1011.10
2019-04-13T04:00:41.705Z,1011.13
2019-04-13T04:01:42.184Z,1011.12
2019-04-13T04:02:42.510Z,1011.18
2019-04-13T04:03:42.755Z,1011.22
2019-04-13T04:04:43.244Z,1011.14
2019-04-13T04:05:43.492Z,1011.13
2019-04-13T04:06:43.766Z,1011.11
2019-04-13T04:07:44.207Z,1011.12
2019-04-13T04:08:44.530Z,1011.10
2019-04-13T04:09:44.777Z,1011.15
2019-04-13T04:10:45.215Z,1011.15
2019-04-13T04:11:45.576Z,1011.10
2019-04-13T04:12:45.700Z,1011.18
2019-04-13T04:13:45.979Z,1011.07
2019-04-13T04:14:46.701Z,1011.14
2019-04-13T04:15:46.924Z,1011.11
2019-04-13T04:16:47.252Z,1011.18
2019-04-13T04:17:47.678Z,1011.13
2019-04-13T04:18:47.961Z,1011.21
2019-04-13T04:19:48.220Z,1011.19
2019-04-13T04:20:48.472Z,1011.19
2019-04-13T04:21:48.745Z,1011.15
2019-04-13T04:22:48.980Z,1011.17
2019-04-13T04:23:49.655Z,1011.21
2019-04-13T04:24:49.890Z,1011.15
2019-04-13T04:25:50.984Z,1011.20
2019-04-13T04:26:49.740Z,1011.16
2019-04-13T04:27:50.003Z,1011.20
2019-04-13T04:28:50.255Z,1011.20
2019-04-13T04:30:50.725Z,1011.22
2019-04-13T04:31:51.170Z,1011.22
2019-04-13T04:32:51.547Z,1011.20
2019-04-13T04:33:51.666Z,1011.24
2019-04-13T04:34:51.916Z,1011.25
2019-04-13T04:35:51.692Z,1011.25
2019-04-13T04:36:51.948Z,1011.34
2019-04-13T04:37:52.205Z,1011.27
2019-04-13T04:38:52.601Z,1011.20
2019-04-13T04:39:52.872Z,1011.26
2019-04-13T04:40:53.121Z,1011.34
2019-04-13T04:41:53.373Z,1011.31
2019-04-13T04:42:53.757Z,1011.26
2019-04-13T04:43:54.051Z,1011.28
2019-04-13T04:44:54.330Z,1011.37
2019-04-13T04:45:54.942Z,1011.32
2019-04-13T04:46:54.810Z,1011.25
2019-04-13T04:47:55.071Z,1011.31
2019-04-13T04:49:55.705Z,1011.28
2019-04-13T04:50:55.577Z,1011.21
2019-04-13T04:51:55.829Z,1011.26
2019-04-13T04:52:56.082Z,1011.25
2019-04-13T04:53:56.388Z,1011.33
2019-04-13T04:54:56.731Z,1011.32
2019-04-13T04:55:56.986Z,1011.27
2019-04-13T04:56:57.402Z,1011.32
2019-04-13T04:57:57.421Z,1011.32
2019-04-13T04:58:57.681Z,1011.29
2019-04-13T04:59:58.181Z,1011.16
2019-04-13T05:00:58.427Z,1011.26
2019-04-13T05:01:58.924Z,1011.19
2019-04-13T05:02:59.314Z,1011.23
2019-04-13T05:03:59.582Z,1011.21
2019-04-13T05:04:59.842Z,1011.26
2019-04-13T05:06:00.106Z,1011.29
2019-04-13T05:07:00.380Z,1011.23
2019-04-13T05:08:10.610Z,1011.22
2019-04-13T05:09:01.200Z,1011.23
2019-04-13T05:10:01.495Z,1011.17
2019-04-13T05:11:02.088Z,1011.30
2019-04-13T05:12:01.885Z,1011.29
2019-04-13T05:13:02.254Z,1011.25
2019-04-13T05:14:02.297Z,1011.26
2019-04-13T05:15:02.134Z,1011.24
2019-04-13T05:16:02.759Z,1011.25
2019-04-13T05:17:02.852Z,1011.25
2019-04-13T05:18:02.941Z,1011.26
2019-04-13T05:19:02.703Z,1011.30
2019-04-13T05:20:03.036Z,1011.29
2019-04-13T05:21:03.807Z,1011.32
2019-04-13T05:22:03.879Z,1011.32
2019-04-13T05:23:03.891Z,1011.32
2019-04-13T05:24:03.984Z,1011.31
2019-04-13T05:25:03.979Z,1011.31
2019-04-13T05:26:04.293Z,1011.32
2019-04-13T05:27:04.367Z,1011.31
2019-04-13T05:28:04.443Z,1011.33
2019-04-13T05:29:04.218Z,1011.35
2019-04-13T05:30:04.657Z,1011.35
2019-04-13T05:31:04.993Z,1011.37
2019-04-13T05:32:05.258Z,1011.37
2019-04-13T05:33:05.541Z,1011.37
2019-04-13T05:34:05.841Z,1011.38
2019-04-13T05:35:06.405Z,1011.39
2019-04-13T05:36:06.314Z,1011.40
2019-04-13T05:37:06.786Z,1011.40
2019-04-13T05:38:07.044Z,1011.42
2019-04-13T05:39:07.306Z,1011.42
2019-04-13T05:40:07.574Z,1011.45
2019-04-13T05:41:07.868Z,1011.45
2019-04-13T05:42:08.117Z,1011.44
2019-04-13T05:43:08.437Z,1011.45
2019-04-13T05:44:08.701Z,1011.46
2019-04-13T05:45:08.972Z,1011.46
2019-04-13T05:46:09.255Z,1011.47
2019-04-13T05:47:09.660Z,1011.50
2019-04-13T05:48:09.959Z,1011.50
2019-04-13T05:49:10.417Z,1011.51
2019-04-13T05:50:10.731Z,1011.51
2019-04-13T05:51:11.171Z,1011.53
2019-04-13T05:52:11.428Z,1011.54
2019-04-13T05:53:11.934Z,1011.53
2019-04-13T05:54:11.993Z,1011.52
2019-04-13T05:55:11.759Z,1011.50
2019-04-13T05:56:12.087Z,1011.49
2019-04-13T05:57:13.407Z,1011.49
2019-04-13T05:58:14.765Z,1011.50
2019-04-13T05:59:12.806Z,1011.48
2019-04-13T06:00:13.059Z,1011.49
2019-04-13T06:01:13.326Z,1011.50
2019-04-13T06:02:13.743Z,1011.52
2019-04-13T06:03:14.126Z,1011.52
2019-04-13T06:04:14.612Z,1011.54
2019-04-13T06:05:15.222Z,1011.54
2019-04-13T06:07:14.997Z,1011.56
2019-04-13T06:08:15.252Z,1011.57
2019-04-13T06:09:15.869Z,1011.56
2019-04-13T06:10:16.151Z,1011.55
2019-04-13T06:11:15.907Z,1011.55
2019-04-13T06:12:16.473Z,1011.57
2019-04-13T06:13:16.437Z,1011.58
2019-04-13T06:14:16.882Z,1011.59
2019-04-13T06:15:17.124Z,1011.60
2019-04-13T06:16:17.760Z,1011.59
2019-04-13T06:17:17.566Z,1011.60
2019-04-13T06:18:21.247Z,1011.59
2019-04-13T06:19:18.164Z,1011.61
2019-04-13T06:20:18.465Z,1011.62
2019-04-13T06:21:18.989Z,1011.63
2019-04-13T06:22:18.759Z,1011.64
2019-04-13T06:23:19.972Z,1011.63
2019-04-13T06:24:21.395Z,1011.64
2019-04-13T06:25:19.979Z,1011.63
2019-04-13T06:26:19.725Z,1011.63
2019-04-13T06:27:19.980Z,1011.62
2019-04-13T06:28:20.461Z,1011.62
2019-04-13T06:29:21.110Z,1011.62
2019-04-13T06:30:21.060Z,1011.63
2019-04-13T06:31:21.736Z,1011.60
2019-04-13T06:32:24.517Z,1011.61
2019-04-13T06:33:21.919Z,1011.61
2019-04-13T06:34:22.692Z,1011.59
2019-04-13T06:35:23.594Z,1011.59
2019-04-13T06:36:22.878Z,1011.61
2019-04-13T06:37:22.934Z,1011.60
2019-04-13T06:38:23.262Z,1011.62
2019-04-13T06:39:23.609Z,1011.63
2019-04-13T06:40:23.966Z,1011.63
2019-04-13T06:41:23.928Z,1011.61
2019-04-13T06:42:24.214Z,1011.61
2019-04-13T06:43:26.858Z,1011.60
2019-04-13T06:44:24.822Z,1011.60
2019-04-13T06:45:25.254Z,1011.60
2019-04-13T06:46:25.741Z,1011.60
2019-04-13T06:47:26.017Z,1011.59
2019-04-13T06:48:26.305Z,1011.60
2019-04-13T06:49:26.593Z,1011.58
2019-04-13T06:50:26.860Z,1011.60
2019-04-13T06:51:27.107Z,1011.61
2019-04-13T06:52:27.493Z,1011.62
2019-04-13T06:53:30.824Z,1011.61
2019-04-13T06:54:28.099Z,1011.61
2019-04-13T06:55:28.373Z,1011.60
2019-04-13T06:56:28.793Z,1011.61
2019-04-13T06:57:29.229Z,1011.59
2019-04-13T06:58:29.804Z,1011.60
2019-04-13T06:59:29.865Z,1011.59
2019-04-13T07:00:30.119Z,1011.57
2019-04-13T07:01:30.529Z,1011.58
2019-04-13T07:02:30.812Z,1011.57
2019-04-13T07:03:31.292Z,1011.55
2019-04-13T07:04:31.738Z,1011.55
2019-04-13T07:05:32.285Z,1011.54
2019-04-13T07:06:32.205Z,1011.53
2019-04-13T07:07:44.773Z,1011.52
2019-04-13T07:08:38.054Z,1011.53
2019-04-13T07:09:40.360Z,1011.53
2019-04-13T07:10:43.852Z,1011.53
2019-04-13T07:11:33.290Z,1011.54
2019-04-13T07:12:33.403Z,1011.53
2019-04-13T07:13:34.006Z,1011.53
2019-04-13T07:14:34.192Z,1011.54
2019-04-13T07:15:45.605Z,1011.54
2019-04-13T07:16:34.942Z,1011.53
2019-04-13T07:17:35.245Z,1011.54
2019-04-13T07:18:36.156Z,1011.55
2019-04-13T07:19:35.840Z,1011.57
2019-04-13T07:20:36.061Z,1011.61
2019-04-13T07:21:38.031Z,1011.61
2019-04-13T07:22:38.565Z,1011.61
2019-04-13T07:23:37.225Z,1011.62
2019-04-13T07:24:37.474Z,1011.62
2019-04-13T07:25:37.738Z,1011.64
2019-04-13T07:26:40.278Z,1011.64
2019-04-13T07:27:38.252Z,1011.64
2019-04-13T07:28:38.752Z,1011.62
2019-04-13T07:29:39.062Z,1011.63
2019-04-13T07:30:39.643Z,1011.65
2019-04-13T07:31:39.552Z,1011.66
2019-04-13T07:32:39.818Z,1011.67
2019-04-13T07:33:40.104Z,1011.69
2019-04-13T07:34:40.337Z,1011.68
2019-04-13T07:35:40.723Z,1011.68
2019-04-13T07:36:42.177Z,1011.68
2019-04-13T07:37:44.633Z,1011.68
2019-04-13T07:38:41.396Z,1011.68
2019-04-13T07:39:41.891Z,1011.70
2019-04-13T07:40:42.168Z,1011.71
2019-04-13T07:41:42.449Z,1011.71
2019-04-13T07:42:42.694Z,1011.72
2019-04-13T07:43:45.762Z,1011.71
2019-04-13T07:44:43.468Z,1011.71
2019-04-13T07:45:44.085Z,1011.72
2019-04-13T07:46:44.468Z,1011.70
2019-04-13T07:47:45.615Z,1011.71
2019-04-13T07:48:44.609Z,1011.72
2019-04-13T07:49:44.674Z,1011.71
2019-04-13T07:50:44.812Z,1011.71
2019-04-13T07:51:44.973Z,1011.71
2019-04-13T07:52:45.221Z,1011.70
2019-04-13T07:53:45.223Z,1011.71
2019-04-13T07:54:45.993Z,1011.71
2019-04-13T07:55:45.565Z,1011.71
2019-04-13T07:56:45.712Z,1011.72
2019-04-13T07:57:45.742Z,1011.71
2019-04-13T07:58:47.308Z,1011.72
2019-04-13T07:59:48.084Z,1011.71
2019-04-13T08:00:46.958Z,1011.72
2019-04-13T08:01:56.585Z,1011.71
2019-04-13T08:02:47.757Z,1011.70
2019-04-13T08:03:48.129Z,1011.71
2019-04-13T08:04:48.516Z,1011.71
2019-04-13T08:06:48.864Z,1011.71
2019-04-13T08:07:50.228Z,1011.71
2019-04-13T08:08:49.130Z,1011.70
2019-04-13T08:09:49.559Z,1011.70
2019-04-13T08:10:49.881Z,1011.70
2019-04-13T08:11:50.073Z,1011.68
2019-04-13T08:12:50.347Z,1011.67
2019-04-13T08:13:50.729Z,1011.67
2019-04-13T08:14:51.137Z,1011.66
2019-04-13T08:15:51.458Z,1011.67
2019-04-13T08:16:51.709Z,1011.67
2019-04-13T08:17:53.725Z,1011.66
2019-04-13T08:18:52.227Z,1011.66
2019-04-13T08:19:55.572Z,1011.66
2019-04-13T08:20:52.591Z,1011.67
2019-04-13T08:21:52.874Z,1011.66
2019-04-13T08:22:53.113Z,1011.66
2019-04-13T08:23:53.389Z,1011.64
2019-04-13T08:24:53.713Z,1011.64
2019-04-13T08:25:54.133Z,1011.62
2019-04-13T08:26:54.399Z,1011.60
2019-04-13T08:27:54.832Z,1011.59
2019-04-13T08:28:54.820Z,1011.59
2019-04-13T08:29:55.104Z,1011.60
2019-04-13T08:30:55.375Z,1011.61
2019-04-13T08:31:55.879Z,1011.61
2019-04-13T08:32:56.003Z,1011.61
2019-04-13T08:33:56.534Z,1011.61
2019-04-13T08:34:57.523Z,1011.61
2019-04-13T08:35:58.206Z,1011.62
2019-04-13T08:36:58.050Z,1011.60
2019-04-13T08:38:12.066Z,1011.59
2019-04-13T08:38:59.364Z,1011.58
2019-04-13T08:40:02.502Z,1011.57
2019-04-13T08:41:10.277Z,1011.55
2019-04-13T08:41:58.431Z,1011.53
2019-04-13T08:42:59.850Z,1011.54
2019-04-13T08:43:58.995Z,1011.53
2019-04-13T08:44:59.086Z,1011.53
2019-04-13T08:45:59.352Z,1011.54
2019-04-13T08:46:59.882Z,1011.52
2019-04-13T08:47:59.851Z,1011.49
2019-04-13T08:49:00.309Z,1011.49
2019-04-13T08:50:00.807Z,1011.48
2019-04-13T08:51:00.703Z,1011.47
2019-04-13T08:52:00.945Z,1011.49
2019-04-13T08:53:01.217Z,1011.47
2019-04-13T08:54:01.734Z,1011.47
2019-04-13T08:55:01.900Z,1011.45
2019-04-13T08:56:01.963Z,1011.44
2019-04-13T08:57:04.766Z,1011.43
2019-04-13T08:58:02.359Z,1011.44
2019-04-13T08:59:04.086Z,1011.43
2019-04-13T09:00:03.013Z,1011.43
2019-04-13T09:01:02.731Z,1011.41
2019-04-13T09:02:03.057Z,1011.40
2019-04-13T09:03:03.563Z,1011.40
2019-04-13T09:04:03.637Z,1011.43
2019-04-13T09:05:04.520Z,1011.44
2019-04-13T09:06:03.713Z,1011.44
2019-04-13T09:07:03.588Z,1011.43
2019-04-13T09:08:04.176Z,1011.43
2019-04-13T09:09:04.254Z,1011.42
2019-04-13T09:10:05.053Z,1011.43
2019-04-13T09:11:04.395Z,1011.40
2019-04-13T09:12:07.173Z,1011.39
2019-04-13T09:13:04.874Z,1011.36
2019-04-13T09:14:07.687Z,1011.35
2019-04-13T09:15:06.231Z,1011.32
2019-04-13T09:16:06.532Z,1011.30
2019-04-13T09:17:06.427Z,1011.27
2019-04-13T09:18:06.210Z,1011.26
2019-04-13T09:19:07.711Z,1011.24
2019-04-13T09:20:07.795Z,1011.23
2019-04-13T09:21:09.159Z,1011.23
2019-04-13T09:22:07.403Z,1011.24
2019-04-13T09:23:08.687Z,1011.23
2019-04-13T09:24:07.831Z,1011.22
2019-04-13T09:25:08.191Z,1011.20
2019-04-13T09:26:11.040Z,1011.19
2019-04-13T09:27:08.481Z,1011.18
2019-04-13T09:28:11.566Z,1011.18
2019-04-13T09:29:09.321Z,1011.17
2019-04-13T09:30:09.560Z,1011.17
2019-04-13T09:31:09.585Z,1011.15
2019-04-13T09:32:09.864Z,1011.14
2019-04-13T09:33:10.125Z,1011.13
2019-04-13T09:34:26.719Z,1011.11
2019-04-13T09:35:10.436Z,1011.11
2019-04-13T09:36:11.000Z,1011.12
2019-04-13T09:37:10.802Z,1011.11
2019-04-13T09:38:11.238Z,1011.10
2019-04-13T09:39:11.709Z,1011.09
2019-04-13T09:40:12.352Z,1011.09
2019-04-13T09:41:13.545Z,1011.08
2019-04-13T09:42:12.824Z,1011.07
2019-04-13T09:43:13.105Z,1011.05
2019-04-13T09:44:13.455Z,1011.04
2019-04-13T09:45:14.951Z,1011.04
2019-04-13T09:46:13.980Z,1011.03
2019-04-13T09:47:13.757Z,1011.02
2019-04-13T09:48:16.342Z,1011.02
2019-04-13T09:49:14.501Z,1011.01
2019-04-13T09:50:15.015Z,1011.01
2019-04-13T09:51:14.807Z,1011.00
2019-04-13T09:52:15.177Z,1010.98
2019-04-13T09:53:15.427Z,1010.96
2019-04-13T09:54:15.704Z,1010.95
2019-04-13T09:55:16.598Z,1010.93
2019-04-13T09:56:16.074Z,1010.91
2019-04-13T09:57:16.350Z,1010.91
2019-04-13T09:58:16.855Z,1010.91
2019-04-13T09:59:16.808Z,1010.91
2019-04-13T10:00:17.368Z,1010.91
2019-04-13T10:01:17.295Z,1010.92
2019-04-13T10:02:17.764Z,1010.90
2019-04-13T10:03:17.777Z,1010.87
2019-04-13T10:04:18.252Z,1010.86
2019-04-13T10:05:18.588Z,1010.86
2019-04-13T10:06:18.867Z,1010.86
2019-04-13T10:07:19.185Z,1010.85
2019-04-13T10:08:20.410Z,1010.84
2019-04-13T10:09:19.400Z,1010.84
2019-04-13T10:10:20.133Z,1010.84
2019-04-13T10:11:20.983Z,1010.84
2019-04-13T10:12:20.203Z,1010.84
2019-04-13T10:13:20.570Z,1010.83
2019-04-13T10:14:20.797Z,1010.82
2019-04-13T10:15:20.992Z,1010.82
2019-04-13T10:16:21.598Z,1010.80
2019-04-13T10:17:23.515Z,1010.79
2019-04-13T10:18:22.315Z,1010.79
2019-04-13T10:19:22.008Z,1010.79
2019-04-13T10:20:22.078Z,1010.79
2019-04-13T10:21:22.636Z,1010.77
2019-04-13T10:22:24.614Z,1010.77
2019-04-13T10:23:22.982Z,1010.76
2019-04-13T10:24:23.143Z,1010.75
2019-04-13T10:25:23.435Z,1010.75
2019-04-13T10:26:23.370Z,1010.72
2019-04-13T10:27:23.395Z,1010.70
2019-04-13T10:28:23.902Z,1010.69
2019-04-13T10:29:23.674Z,1010.66
2019-04-13T10:30:23.980Z,1010.65
2019-04-13T10:31:26.701Z,1010.64
2019-04-13T10:32:24.819Z,1010.64
2019-04-13T10:33:25.054Z,1010.61
2019-04-13T10:34:25.310Z,1010.59
2019-04-13T10:35:25.485Z,1010.58
2019-04-13T10:36:25.699Z,1010.56
2019-04-13T10:37:26.017Z,1010.55
2019-04-13T10:38:25.982Z,1010.56
2019-04-13T10:39:29.484Z,1010.56
2019-04-13T10:40:26.455Z,1010.56
2019-04-13T10:41:26.606Z,1010.55
2019-04-13T10:42:26.655Z,1010.53
2019-04-13T10:43:27.065Z,1010.50
2019-04-13T10:44:27.438Z,1010.47
2019-04-13T10:45:27.848Z,1010.45
2019-04-13T10:46:28.580Z,1010.43
2019-04-13T10:47:29.127Z,1010.44
2019-04-13T10:48:28.849Z,1010.42
2019-04-13T10:49:29.185Z,1010.41
2019-04-13T10:50:29.364Z,1010.42
2019-04-13T10:51:30.717Z,1010.42
2019-04-13T10:52:29.862Z,1010.41
2019-04-13T10:53:31.148Z,1010.41
2019-04-13T10:54:30.477Z,1010.42
2019-04-13T10:55:30.737Z,1010.41
2019-04-13T10:56:34.982Z,1010.42
2019-04-13T10:57:31.093Z,1010.40
2019-04-13T10:59:31.691Z,1010.39
2019-04-13T11:00:33.302Z,1010.39
2019-04-13T11:01:32.158Z,1010.37
2019-04-13T11:02:32.460Z,1010.37
2019-04-13T11:03:32.962Z,1010.35
2019-04-13T11:04:32.753Z,1010.36
2019-04-13T11:05:33.245Z,1010.33
2019-04-13T11:06:33.820Z,1010.30
2019-04-13T11:07:34.883Z,1010.30
2019-04-13T11:08:33.924Z,1010.27
2019-04-13T11:09:34.179Z,1010.25
2019-04-13T11:10:34.838Z,1010.22
2019-04-13T11:11:35.217Z,1010.19
2019-04-13T11:12:34.718Z,1010.20
2019-04-13T11:13:34.988Z,1010.21
2019-04-13T11:14:35.504Z,1010.21
2019-04-13T11:15:35.314Z,1010.24
2019-04-13T11:16:35.783Z,1010.27
2019-04-13T11:17:36.072Z,1010.27
2019-04-13T11:18:36.982Z,1010.26
2019-04-13T11:19:40.323Z,1010.27
2019-04-13T11:20:37.064Z,1010.28
2019-04-13T11:21:37.073Z,1010.28
2019-04-13T11:22:37.363Z,1010.30
2019-04-13T11:23:44.946Z,1010.30
2019-04-13T11:24:37.947Z,1010.29
2019-04-13T11:25:38.311Z,1010.28
2019-04-13T11:26:38.387Z,1010.28
2019-04-13T11:27:38.949Z,1010.28
2019-04-13T11:28:39.804Z,1010.26
2019-04-13T11:29:39.203Z,1010.27
2019-04-13T11:30:39.470Z,1010.27
2019-04-13T11:31:39.822Z,1010.27
2019-04-13T11:32:40.174Z,1010.27
2019-04-13T11:33:42.770Z,1010.27
2019-04-13T11:34:40.829Z,1010.27
2019-04-13T11:35:41.115Z,1010.26
2019-04-13T11:36:41.440Z,1010.25
2019-04-13T11:37:41.924Z,1010.25
2019-04-13T11:38:42.125Z,1010.26
2019-04-13T11:39:42.113Z,1010.27
2019-04-13T11:40:42.885Z,1010.27
2019-04-13T11:41:43.151Z,1010.26
2019-04-13T11:42:43.196Z,1010.26
2019-04-13T11:43:43.555Z,1010.24
2019-04-13T11:44:47.976Z,1010.25
2019-04-13T11:45:43.774Z,1010.23
2019-04-13T11:46:44.323Z,1010.23
2019-04-13T11:47:43.822Z,1010.23
2019-04-13T11:48:43.820Z,1010.23
2019-04-13T11:49:44.082Z,1010.25
2019-04-13T11:50:44.351Z,1010.22
2019-04-13T11:51:44.552Z,1010.20
2019-04-13T11:52:44.840Z,1010.20
2019-04-13T11:53:45.132Z,1010.20
2019-04-13T11:54:45.154Z,1010.22
2019-04-13T11:55:45.512Z,1010.23
2019-04-13T11:56:45.805Z,1010.23
2019-04-13T11:57:47.343Z,1010.24
2019-04-13T11:58:46.331Z,1010.23
2019-04-13T11:59:46.803Z,1010.25
2019-04-13T12:00:47.263Z,1010.25
2019-04-13T12:01:47.057Z,1010.25
2019-04-13T12:02:47.303Z,1010.27
2019-04-13T12:03:47.284Z,1010.25
2019-04-13T12:04:47.729Z,1010.24
2019-04-13T12:05:48.174Z,1010.22
2019-04-13T12:06:48.559Z,1010.22
2019-04-13T12:07:48.956Z,1010.21
2019-04-13T12:08:48.957Z,1010.20
2019-04-13T12:09:50.289Z,1010.20
2019-04-13T12:10:49.792Z,1010.22
2019-04-13T12:11:49.927Z,1010.19
2019-04-13T12:12:49.939Z,1010.20
2019-04-13T12:13:49.963Z,1010.18
2019-04-13T12:14:51.734Z,1010.14